KSME/SME METAR and TAF weather

Enter ICAO airport designator
Station Type Date Time Source
KSME METAR 2020/07/05 16:55 UTC NOAA

KSME 051655Z AUTO 00000KT 10SM CLR 30/17 A3002 RMK AO2 TSNO


Station Type Date Time Source
KSME Decoded METAR 2020/07/05 16:55 UTC NOAA

Somerset, Somerset-Pulaski County - J.T. Wilson Field Airport, KY, United States (KSME) 37-03-15N 084-36-54W
Jul 05, 2020 - 12:55 PM EDT / 2020.07.05 1655 UTC
Wind: Calm:0
Visibility: 10 mile(s):0
Sky conditions: clear
Temperature: 86 F (30 C)
Dew Point: 62 F (17 C)
Relative Humidity: 45%
Pressure (altimeter): 30.02 in. Hg (1016 hPa)
ob: KSME 051655Z AUTO 00000KT 10SM CLR 30/17 A3002 RMK AO2 TSNO
cycle: 17

Station Type Date Time Source
KSME TAF 2020/07/05 12:45 UTC NOAA

TAF KSME 051139Z 0512/0612 VRB03KT 5SM BR FEW250
FM051230 VRB03KT P6SM FEW250
FM051600 VRB03KT P6SM SCT050
FM060700 VRB03KT 4SM BR FEW250

Example: see airport list